createdAt,value
2022-08-11T00:00:15.207Z,31.68
2022-08-11T00:02:46.763Z,31.65
2022-08-11T00:05:20.231Z,31.57
2022-08-11T00:07:52.047Z,31.53
2022-08-11T00:10:24.051Z,31.50
2022-08-11T00:12:57.532Z,31.47
2022-08-11T00:20:47.105Z,31.45
2022-08-11T00:23:20.616Z,31.45
2022-08-11T00:25:54.425Z,31.39
2022-08-11T00:28:32.225Z,31.42
2022-08-11T00:31:10.647Z,31.39
2022-08-11T00:33:49.148Z,31.35
2022-08-11T00:39:14.030Z,31.18
2022-08-11T00:42:10.947Z,31.16
2022-08-11T00:45:05.520Z,31.09
2022-08-11T00:47:35.697Z,31.06
2022-08-11T00:50:27.243Z,31.06
2022-08-11T00:53:12.863Z,31.09
2022-08-11T00:59:34.506Z,31.14
2022-08-11T01:02:04.522Z,31.06
2022-08-11T01:05:07.080Z,30.98
2022-08-11T01:08:06.367Z,30.97
2022-08-11T01:11:24.505Z,30.99
2022-08-11T01:23:24.346Z,31.00
2022-08-11T01:26:30.831Z,31.04
2022-08-11T01:29:24.410Z,30.99
2022-08-11T01:32:00.097Z,30.94
2022-08-11T01:34:29.317Z,30.88
2022-08-11T01:37:33.775Z,30.86
2022-08-11T01:44:05.499Z,30.72
2022-08-11T01:47:52.901Z,30.72
2022-08-11T01:50:33.151Z,30.73
2022-08-11T01:53:20.997Z,30.74
2022-08-11T01:56:10.694Z,30.70
2022-08-11T02:02:47.632Z,30.57
2022-08-11T02:06:00.564Z,30.53
2022-08-11T02:08:50.333Z,30.52
2022-08-11T02:11:35.532Z,30.49
2022-08-11T02:14:27.589Z,30.51
2022-08-11T02:17:11.713Z,30.53
2022-08-11T02:24:00.527Z,30.53
2022-08-11T02:26:42.500Z,30.54
2022-08-11T02:29:32.803Z,30.50
2022-08-11T02:32:31.773Z,30.44
2022-08-11T02:35:20.852Z,30.43
2022-08-11T02:38:30.933Z,30.40
2022-08-11T02:47:39.968Z,30.37
2022-08-11T02:50:24.142Z,30.39
2022-08-11T02:53:19.680Z,30.44
2022-08-11T02:56:00.982Z,30.44
2022-08-11T02:59:12.273Z,30.44
2022-08-11T03:01:51.160Z,30.38
2022-08-11T03:10:04.718Z,30.24
2022-08-11T03:13:04.127Z,30.23
2022-08-11T03:16:40.835Z,30.23
2022-08-11T03:20:05.205Z,30.23
2022-08-11T03:22:37.382Z,30.18
2022-08-11T03:30:44.943Z,30.23
2022-08-11T03:33:40.714Z,30.22
2022-08-11T03:37:16.274Z,30.24
2022-08-11T03:40:46.773Z,30.19
2022-08-11T03:43:58.264Z,30.16
2022-08-11T03:49:54.997Z,30.17
2022-08-11T03:52:23.867Z,30.13
2022-08-11T03:55:15.785Z,30.16
2022-08-11T03:58:14.296Z,30.15
2022-08-11T04:00:55.009Z,30.14
2022-08-11T04:03:34.159Z,30.14
2022-08-11T04:06:41.300Z,30.15
2022-08-11T04:16:12.828Z,30.16
2022-08-11T04:19:11.024Z,30.15
2022-08-11T04:21:52.035Z,30.15
2022-08-11T04:24:40.821Z,30.17
2022-08-11T04:27:35.368Z,30.14
2022-08-11T04:30:14.969Z,30.08
2022-08-11T04:33:05.338Z,30.05
2022-08-11T04:41:15.061Z,30.04
2022-08-11T04:44:16.245Z,30.02
2022-08-11T04:48:03.269Z,29.98
2022-08-11T04:51:20.853Z,30.00
2022-08-11T04:54:34.275Z,30.01
2022-08-11T04:57:44.730Z,30.01
2022-08-11T05:06:01.406Z,30.04
2022-08-11T05:08:41.858Z,30.04
2022-08-11T05:11:34.270Z,30.03
2022-08-11T05:14:30.823Z,30.03
2022-08-11T05:17:31.088Z,30.00
2022-08-11T05:20:16.904Z,29.96
2022-08-11T05:26:47.853Z,29.95
2022-08-11T05:29:44.434Z,29.91
2022-08-11T05:32:36.164Z,29.89
2022-08-11T05:35:07.560Z,29.87
2022-08-11T05:38:04.626Z,29.88
2022-08-11T05:40:53.077Z,29.88
2022-08-11T05:46:41.067Z,29.85
2022-08-11T05:49:32.206Z,29.82
2022-08-11T05:52:21.660Z,29.79
2022-08-11T05:55:25.144Z,29.80
2022-08-11T05:58:04.704Z,29.83
2022-08-11T06:00:41.736Z,29.83
2022-08-11T06:07:57.168Z,29.79
2022-08-11T06:10:46.814Z,29.82
2022-08-11T06:13:18.285Z,29.81
2022-08-11T06:15:55.765Z,29.81
2022-08-11T06:18:25.000Z,29.77
2022-08-11T06:20:57.867Z,29.77
2022-08-11T06:27:11.086Z,29.76
2022-08-11T06:29:47.835Z,29.75
2022-08-11T06:32:26.667Z,29.77
2022-08-11T06:35:17.940Z,29.81
2022-08-11T06:38:11.359Z,29.77
2022-08-11T06:41:26.250Z,29.76
2022-08-11T06:48:15.600Z,29.71
2022-08-11T06:51:20.768Z,29.77
2022-08-11T06:53:59.165Z,29.77
2022-08-11T06:57:26.341Z,29.78
2022-08-11T07:00:04.681Z,29.75
2022-08-11T07:02:37.258Z,29.75
2022-08-11T07:08:47.062Z,29.74
2022-08-11T07:12:07.905Z,29.72
2022-08-11T07:15:01.147Z,29.66
2022-08-11T07:17:31.953Z,29.66
2022-08-11T07:20:21.710Z,29.66
2022-08-11T07:28:59.451Z,29.64
2022-08-11T07:31:46.836Z,29.63
2022-08-11T07:34:26.274Z,29.60
2022-08-11T07:37:00.432Z,29.57
2022-08-11T07:39:33.317Z,29.55
2022-08-11T07:42:11.902Z,29.54
2022-08-11T07:50:27.249Z,29.52
2022-08-11T07:52:55.701Z,29.51
2022-08-11T07:55:51.018Z,29.52
2022-08-11T07:58:45.475Z,29.56
2022-08-11T08:01:44.743Z,29.59
2022-08-11T08:04:33.898Z,29.57
2022-08-11T08:07:25.271Z,29.57
2022-08-11T08:16:03.908Z,29.53
2022-08-11T08:18:36.055Z,29.56
2022-08-11T08:21:12.500Z,29.58
2022-08-11T08:23:53.072Z,29.59
2022-08-11T08:26:43.609Z,29.58
2022-08-11T08:29:47.509Z,29.58
2022-08-11T08:37:46.379Z,29.52
2022-08-11T08:40:15.967Z,29.49
2022-08-11T08:42:58.534Z,29.48
2022-08-11T08:45:28.255Z,29.45
2022-08-11T08:48:02.234Z,29.44
2022-08-11T08:50:57.157Z,29.43
2022-08-11T08:56:28.533Z,29.45
2022-08-11T08:59:01.951Z,29.45
2022-08-11T09:01:48.191Z,29.49
2022-08-11T09:04:21.433Z,29.50
2022-08-11T09:06:52.432Z,29.51
2022-08-11T09:09:25.234Z,29.48
2022-08-11T09:11:53.609Z,29.45
2022-08-11T09:19:05.589Z,29.34
2022-08-11T09:21:48.062Z,29.38
2022-08-11T09:24:38.279Z,29.41
2022-08-11T09:27:08.668Z,29.42
2022-08-11T09:29:44.362Z,29.46
2022-08-11T09:32:14.878Z,29.44
2022-08-11T09:40:31.213Z,29.51
2022-08-11T09:43:24.943Z,29.49
2022-08-11T09:45:55.819Z,29.48
2022-08-11T09:48:31.559Z,29.47
2022-08-11T09:51:03.749Z,29.44
2022-08-11T09:53:40.843Z,29.39
2022-08-11T09:56:35.595Z,29.40
2022-08-11T10:02:03.611Z,29.69
2022-08-11T10:04:45.439Z,29.55
2022-08-11T10:07:21.545Z,29.49
2022-08-11T10:09:56.239Z,29.47
2022-08-11T10:12:32.395Z,29.45
2022-08-11T10:15:24.891Z,29.47
2022-08-11T10:18:15.799Z,29.48
2022-08-11T10:26:33.802Z,29.46
2022-08-11T10:29:25.348Z,29.45
2022-08-11T10:32:28.583Z,29.41
2022-08-11T10:35:02.573Z,29.37
2022-08-11T10:38:06.863Z,29.37
2022-08-11T10:40:26.215Z,29.33
2022-08-11T10:46:07.379Z,29.28
2022-08-11T10:48:41.678Z,29.28
2022-08-11T10:51:15.348Z,29.27
2022-08-11T10:54:12.849Z,29.26
2022-08-11T10:57:01.833Z,29.24
2022-08-11T10:59:35.129Z,29.21
2022-08-11T11:02:06.405Z,29.19
2022-08-11T11:10:06.858Z,29.23
2022-08-11T11:12:57.779Z,29.23
2022-08-11T11:15:51.884Z,29.25
2022-08-11T11:18:26.144Z,29.26
2022-08-11T11:21:07.465Z,29.29
2022-08-11T11:23:52.447Z,29.32
2022-08-11T11:32:05.883Z,29.39
2022-08-11T11:34:52.952Z,29.44
2022-08-11T11:37:26.670Z,29.50
2022-08-11T11:39:57.325Z,29.52
2022-08-11T11:42:31.354Z,29.57
2022-08-11T11:45:01.443Z,29.61
2022-08-11T11:47:32.706Z,29.69
2022-08-11T11:54:17.958Z,29.85
2022-08-11T11:56:46.739Z,29.90
2022-08-11T11:59:34.223Z,29.99
2022-08-11T12:02:11.967Z,30.14
2022-08-11T12:04:44.425Z,30.25
2022-08-11T12:07:32.162Z,30.36
2022-08-11T12:18:14.304Z,30.79
2022-08-11T12:20:46.158Z,30.85
2022-08-11T12:23:34.037Z,30.90
2022-08-11T12:26:27.211Z,30.93
2022-08-11T12:28:58.574Z,30.93
2022-08-11T12:31:26.586Z,30.91
2022-08-11T12:40:16.867Z,31.18
2022-08-11T12:42:55.458Z,30.82
2022-08-11T12:45:27.777Z,30.69
2022-08-11T12:49:01.272Z,30.60
2022-08-11T12:52:11.951Z,30.54
2022-08-11T13:00:34.422Z,31.22
2022-08-11T13:03:25.254Z,31.21
2022-08-11T13:05:56.556Z,31.18
2022-08-11T13:08:27.712Z,31.19
2022-08-11T13:11:17.360Z,31.15
2022-08-11T13:13:57.509Z,31.15
2022-08-11T13:21:58.780Z,31.44
2022-08-11T13:24:28.533Z,31.50
2022-08-11T13:26:56.342Z,31.54
2022-08-11T13:29:27.882Z,31.56
2022-08-11T13:32:01.230Z,31.61
2022-08-11T13:34:32.333Z,31.69
2022-08-11T13:37:06.023Z,31.72
2022-08-11T13:42:16.341Z,31.99
2022-08-11T13:44:47.551Z,32.07
2022-08-11T13:47:16.339Z,32.27
2022-08-11T13:49:45.635Z,32.38
2022-08-11T13:52:16.878Z,32.50
2022-08-11T13:54:48.115Z,32.57
2022-08-11T13:58:08.125Z,32.57
2022-08-11T14:04:31.206Z,32.24
2022-08-11T14:07:04.649Z,32.18
2022-08-11T14:09:38.390Z,32.22
2022-08-11T14:12:32.275Z,32.17
2022-08-11T14:15:08.731Z,32.17
2022-08-11T14:17:47.941Z,32.38
2022-08-11T14:26:04.974Z,33.07
2022-08-11T14:28:39.902Z,33.32
2022-08-11T14:31:11.312Z,33.54
2022-08-11T14:33:59.448Z,33.57
2022-08-11T14:36:36.324Z,33.54
2022-08-11T14:39:15.614Z,33.74
2022-08-11T14:47:23.062Z,33.81
2022-08-11T14:50:09.454Z,33.82
2022-08-11T14:53:05.511Z,33.89
2022-08-11T14:55:56.456Z,34.17
2022-08-11T14:58:28.184Z,34.50
2022-08-11T15:01:02.966Z,34.76
2022-08-11T15:06:29.368Z,34.86
2022-08-11T15:09:08.836Z,35.08
2022-08-11T15:11:57.709Z,35.09
2022-08-11T15:14:45.896Z,34.97
2022-08-11T15:17:15.153Z,35.15
2022-08-11T15:20:05.681Z,35.29
2022-08-11T15:28:32.784Z,36.05
2022-08-11T15:31:22.684Z,35.79
2022-08-11T15:34:14.192Z,35.73
2022-08-11T15:37:07.204Z,35.57
2022-08-11T15:40:31.619Z,35.48
2022-08-11T15:43:53.639Z,35.58
2022-08-11T15:52:01.604Z,35.36
2022-08-11T15:54:32.923Z,35.42
2022-08-11T15:57:05.964Z,35.20
2022-08-11T15:59:55.704Z,34.99
2022-08-11T16:02:32.885Z,34.96
2022-08-11T16:05:06.251Z,35.07
2022-08-11T16:07:40.684Z,35.30
2022-08-11T16:13:06.164Z,35.95
2022-08-11T16:15:58.262Z,35.94
2022-08-11T16:18:42.451Z,35.85
2022-08-11T16:21:33.556Z,36.10
2022-08-11T16:26:38.116Z,36.13
2022-08-11T16:27:13.577Z,36.20
2022-08-11T16:29:48.514Z,36.43
2022-08-11T16:36:14.775Z,36.83
2022-08-11T16:38:46.178Z,37.05
2022-08-11T16:41:37.687Z,37.17
2022-08-11T16:44:32.905Z,37.36
2022-08-11T16:47:12.878Z,37.60
2022-08-11T16:49:50.625Z,37.65
2022-08-11T16:56:33.190Z,37.41
2022-08-11T16:59:16.191Z,37.55
2022-08-11T17:01:55.895Z,37.43
2022-08-11T17:05:11.681Z,37.05
2022-08-11T17:08:05.328Z,36.60
2022-08-11T17:11:05.744Z,36.73
2022-08-11T17:17:38.282Z,36.74
2022-08-11T17:20:41.220Z,36.87
2022-08-11T17:23:25.303Z,36.99
2022-08-11T17:26:03.067Z,37.26
2022-08-11T17:28:34.943Z,37.39
2022-08-11T17:31:25.635Z,37.40
2022-08-11T17:38:49.310Z,38.18
2022-08-11T17:41:37.045Z,38.05
2022-08-11T17:44:25.856Z,38.08
2022-08-11T17:47:13.118Z,38.18
2022-08-11T17:49:43.335Z,37.87
2022-08-11T17:52:35.413Z,37.76
2022-08-11T17:58:34.811Z,37.87
2022-08-11T18:01:12.781Z,38.13
2022-08-11T18:03:57.544Z,37.94
2022-08-11T18:06:33.997Z,38.07
2022-08-11T18:09:32.950Z,38.32
2022-08-11T18:12:25.715Z,38.21
2022-08-11T18:20:33.705Z,37.75
2022-08-11T18:23:45.779Z,37.74
2022-08-11T18:26:32.994Z,37.79
2022-08-11T18:29:19.117Z,37.72
2022-08-11T18:32:08.379Z,37.68
2022-08-11T18:35:03.286Z,37.68
2022-08-11T18:43:27.912Z,37.96
2022-08-11T18:46:23.061Z,38.07
2022-08-11T18:49:23.060Z,38.09
2022-08-11T18:52:15.882Z,38.15
2022-08-11T18:55:06.551Z,38.14
2022-08-11T18:58:00.018Z,38.17
2022-08-11T19:05:06.088Z,38.26
2022-08-11T19:07:53.289Z,37.97
2022-08-11T19:10:43.172Z,37.90
2022-08-11T19:13:35.614Z,37.69
2022-08-11T19:16:27.220Z,37.66
2022-08-11T19:19:14.651Z,37.61
2022-08-11T19:26:35.216Z,37.58
2022-08-11T19:30:04.804Z,37.75
2022-08-11T19:32:34.161Z,37.87
2022-08-11T19:35:28.342Z,37.68
2022-08-11T19:38:16.862Z,37.71
2022-08-11T19:41:03.516Z,37.73
2022-08-11T19:48:47.219Z,37.43
2022-08-11T19:51:34.172Z,37.62
2022-08-11T19:54:25.570Z,37.68
2022-08-11T19:57:16.157Z,37.48
2022-08-11T20:00:06.044Z,37.22
2022-08-11T20:02:53.840Z,36.95
2022-08-11T20:10:46.143Z,37.00
2022-08-11T20:13:34.430Z,37.11
2022-08-11T20:16:23.539Z,37.07
2022-08-11T20:19:13.512Z,37.03
2022-08-11T20:22:08.242Z,37.08
2022-08-11T20:24:57.429Z,36.93
2022-08-11T20:32:44.081Z,37.10
2022-08-11T20:35:35.092Z,37.23
2022-08-11T20:38:26.100Z,37.03
2022-08-11T20:41:16.313Z,36.80
2022-08-11T20:44:09.147Z,36.60
2022-08-11T20:46:59.294Z,36.56
2022-08-11T20:52:54.525Z,36.41
2022-08-11T20:55:53.186Z,36.27
2022-08-11T21:01:55.168Z,36.16
2022-08-11T21:04:54.854Z,36.12
2022-08-11T21:07:55.531Z,35.89
2022-08-11T21:16:36.671Z,35.75
2022-08-11T21:20:06.926Z,35.76
2022-08-11T21:23:06.317Z,35.80
2022-08-11T21:25:59.703Z,35.62
2022-08-11T21:28:47.776Z,35.55
2022-08-11T21:34:46.194Z,35.28
2022-08-11T21:37:35.371Z,35.14
2022-08-11T21:40:28.595Z,35.06
2022-08-11T21:43:17.491Z,34.97
2022-08-11T21:46:08.478Z,34.89
2022-08-11T21:48:56.748Z,34.79
2022-08-11T21:56:47.245Z,34.52
2022-08-11T21:59:39.931Z,34.58
2022-08-11T22:02:26.422Z,34.70
2022-08-11T22:05:13.737Z,34.68
2022-08-11T22:07:59.613Z,34.66
2022-08-11T22:10:46.426Z,34.64
2022-08-11T22:18:13.667Z,34.40
2022-08-11T22:21:03.924Z,34.26
2022-08-11T22:23:57.492Z,34.23
2022-08-11T22:26:47.470Z,34.01
2022-08-11T22:29:50.115Z,33.85
2022-08-11T22:32:39.864Z,33.75
2022-08-11T22:38:26.831Z,33.63
2022-08-11T22:41:14.081Z,33.66
2022-08-11T22:43:59.983Z,33.71
2022-08-11T22:46:48.984Z,33.73
2022-08-11T22:49:42.538Z,33.70
2022-08-11T22:52:47.361Z,33.65
2022-08-11T23:00:30.340Z,33.20
2022-08-11T23:03:37.170Z,33.06
2022-08-11T23:06:26.505Z,33.05
2022-08-11T23:09:14.954Z,32.94
2022-08-11T23:12:07.079Z,32.89
2022-08-11T23:14:58.239Z,32.87
2022-08-11T23:22:49.015Z,32.72
2022-08-11T23:25:37.863Z,32.66
2022-08-11T23:28:26.347Z,32.62
2022-08-11T23:31:16.605Z,32.55
2022-08-11T23:34:08.157Z,32.48
2022-08-11T23:37:14.522Z,32.43
2022-08-11T23:43:45.801Z,32.27
2022-08-11T23:46:33.809Z,32.16
2022-08-11T23:49:24.168Z,32.16
2022-08-11T23:52:13.864Z,32.07
2022-08-11T23:55:00.514Z,31.96
2022-08-11T23:57:49.341Z,31.95
